Time;durP1;ratioP1;P1;durP2;ratioP2;P2;SDS_P1;SDS_P2;PMS_P1;PMS_P2;Temp;Humidity;BMP_temperature;BMP_pressure;BME280_temperature;BME280_humidity;BME280_pressure;Samples;Min_cycle;Max_cycle;Signal;HPM_P1;HPM_P2
2024/02/13 00:01:44;;;;;;;1.08;0.30;;;;;;;21.34;36.44;99006.13;7392137;19;20357;-79
2024/02/13 00:04:10;;;;;;;1.85;0.57;;;;;;;23.18;34.61;99003.88;7388421;19;20330;-79
2024/02/13 00:06:37;;;;;;;1.55;0.70;;;;;;;22.24;35.18;99005.75;7388049;19;20021;-79
2024/02/13 00:09:06;;;;;;;0.20;0.20;;;;;;;21.47;36.34;99011.56;7386244;19;20019;-79
2024/02/13 00:11:32;;;;;;;0.47;0.47;;;;;;;22.91;34.51;99008.69;7390537;19;20038;-79
2024/02/13 00:13:59;;;;;;;1.02;0.40;;;;;;;20.95;36.58;99011.06;7384886;19;20021;-78
2024/02/13 00:16:26;;;;;;;1.88;0.30;;;;;;;21.97;35.74;99016.13;7387037;19;20408;-79
2024/02/13 00:18:52;;;;;;;0.10;0.10;;;;;;;22.07;35.52;99011.31;7386623;19;20037;-79
2024/02/13 00:21:18;;;;;;;0.65;0.57;;;;;;;23.24;34.23;99007.22;7392666;19;20045;-79
2024/02/13 00:23:44;;;;;;;0.40;0.40;;;;;;;21.83;35.28;99012.78;7394556;19;20025;-79
2024/02/13 00:26:10;;;;;;;0.10;0.10;;;;;;;21.61;35.90;99015.69;7394593;19;20022;-79
2024/02/13 00:28:37;;;;;;;0.52;0.32;;;;;;;20.78;36.55;99010.16;7398931;19;20038;-79
2024/02/13 00:31:07;;;;;;;2.47;0.70;;;;;;;24.18;32.99;99008.59;7397627;19;20021;-79
2024/02/13 00:33:34;;;;;;;1.75;0.30;;;;;;;25.24;31.20;99016.19;7392242;19;20013;-78
2024/02/13 00:36:02;;;;;;;0.17;0.17;;;;;;;25.88;30.37;99013.81;7391909;19;20464;-79
2024/02/13 00:38:29;;;;;;;0.15;0.15;;;;;;;21.56;34.98;99022.31;7397399;19;20019;-79
2024/02/13 00:40:55;;;;;;;0.10;0.10;;;;;;;21.61;35.35;99035.53;7396032;19;20022;-79
2024/02/13 00:43:22;;;;;;;0.43;0.30;;;;;;;22.64;34.99;99019.88;7393733;19;20011;-79
2024/02/13 00:45:49;;;;;;;0.57;0.35;;;;;;;25.36;32.16;99024.91;7392135;19;20021;-79
2024/02/13 00:48:18;;;;;;;0.10;0.10;;;;;;;24.87;32.52;99020.44;7397701;19;20019;-79
2024/02/13 00:50:46;;;;;;;0.10;0.10;;;;;;;24.62;32.63;99014.19;7394429;19;20055;-79
2024/02/13 00:53:15;;;;;;;0.60;0.60;;;;;;;22.76;34.67;99025.84;7391876;19;20030;-79
2024/02/13 00:55:42;;;;;;;2.17;0.30;;;;;;;24.69;32.95;99019.00;7392920;19;20364;-79
2024/02/13 00:58:09;;;;;;;0.52;0.45;;;;;;;22.77;34.89;99016.75;7393181;19;20015;-79
2024/02/13 01:00:36;;;;;;;1.52;0.70;;;;;;;22.43;35.47;99022.28;7395738;19;20027;-79
2024/02/13 01:03:02;;;;;;;0.30;0.20;;;;;;;22.09;35.66;99022.84;7394656;19;20367;-79
2024/02/13 01:05:32;;;;;;;0.30;0.30;;;;;;;23.21;35.00;99025.44;7392706;19;20046;-79
2024/02/13 01:07:58;;;;;;;2.17;0.88;;;;;;;22.57;35.83;99038.44;7393914;19;20512;-79
2024/02/13 01:10:24;;;;;;;0.10;0.10;;;;;;;22.54;35.70;99033.91;7391784;19;20014;-79
2024/02/13 01:12:52;;;;;;;0.10;0.10;;;;;;;24.27;34.10;99030.66;7392129;19;20014;-79
2024/02/13 01:15:18;;;;;;;0.13;0.13;;;;;;;25.13;32.87;99031.00;7392926;19;20023;-79
2024/02/13 01:17:44;;;;;;;0.10;0.10;;;;;;;24.40;34.00;99035.22;7392392;19;20033;-80
2024/02/13 01:20:12;;;;;;;0.20;0.15;;;;;;;24.68;33.38;99026.06;7396948;19;20019;-79
2024/02/13 01:22:38;;;;;;;0.25;0.20;;;;;;;24.78;33.64;99032.56;7391983;19;20029;-79
2024/02/13 01:25:10;;;;;;;0.55;0.55;;;;;;;25.30;32.39;99030.13;7392078;19;20070;-79
2024/02/13 01:27:38;;;;;;;0.20;0.20;;;;;;;25.28;32.26;99039.28;7393529;19;20493;-79
2024/02/13 01:30:05;;;;;;;0.10;0.10;;;;;;;25.07;32.61;99035.50;7395869;19;20361;-79
2024/02/13 01:32:31;;;;;;;1.10;0.20;;;;;;;26.62;30.94;99033.47;7390058;19;20010;-79
2024/02/13 01:34:57;;;;;;;1.65;0.85;;;;;;;26.02;31.28;99023.41;7391526;19;20488;-79
2024/02/13 01:37:23;;;;;;;1.55;0.63;;;;;;;26.47;31.35;99039.53;7391570;19;20022;-79
2024/02/13 01:39:50;;;;;;;0.10;0.10;;;;;;;27.70;30.09;99039.50;7393525;19;20021;-79
2024/02/13 01:42:17;;;;;;;0.10;0.10;;;;;;;27.94;29.81;99032.50;7392658;19;20019;-79
2024/02/13 01:44:43;;;;;;;0.25;0.25;;;;;;;26.29;31.27;99036.13;7392854;19;20352;-79
2024/02/13 01:47:09;;;;;;;0.08;0.00;;;;;;;25.82;31.72;99039.03;7391749;19;20014;-79
2024/02/13 01:49:35;;;;;;;0.13;0.13;;;;;;;25.88;31.78;99045.94;7392690;19;20019;-79
2024/02/13 01:52:03;;;;;;;0.10;0.10;;;;;;;26.83;30.48;99045.00;7391809;19;20014;-79
2024/02/13 01:54:30;;;;;;;2.28;0.43;;;;;;;24.66;31.89;99060.06;7393481;19;20090;-79
2024/02/13 01:56:57;;;;;;;0.50;0.50;;;;;;;24.03;32.76;99057.88;7388065;19;20010;-79
2024/02/13 01:59:25;;;;;;;5.35;0.25;;;;;;;23.74;33.38;99065.44;7392751;19;20478;-79
2024/02/13 02:01:54;;;;;;;0.10;0.10;;;;;;;23.54;33.72;99074.38;7393334;19;20018;-79
2024/02/13 02:04:20;;;;;;;0.20;0.20;;;;;;;23.48;33.67;99071.03;7390928;19;20036;-79
2024/02/13 02:06:49;;;;;;;0.10;0.10;;;;;;;23.53;33.65;99067.94;7387383;19;20028;-79
2024/02/13 02:09:15;;;;;;;0.52;0.52;;;;;;;23.43;33.88;99069.97;7387197;19;20126;-79
2024/02/13 02:11:42;;;;;;;0.30;0.30;;;;;;;25.18;32.01;99066.28;7388899;19;20018;-82
2024/02/13 02:14:08;;;;;;;1.20;0.40;;;;;;;25.85;31.18;99066.38;7388798;19;20035;-82
2024/02/13 02:16:35;;;;;;;0.10;0.10;;;;;;;25.67;31.37;99073.56;7387490;19;20035;-82
2024/02/13 02:19:03;;;;;;;0.10;0.10;;;;;;;25.82;30.97;99068.31;7389419;19;20015;-82
2024/02/13 02:21:29;;;;;;;0.20;0.20;;;;;;;23.77;32.64;99084.19;7391076;19;20010;-82
2024/02/13 02:23:55;;;;;;;0.20;0.20;;;;;;;23.38;33.02;99079.47;7389203;19;20018;-80
2024/02/13 02:26:21;;;;;;;0.45;0.38;;;;;;;26.36;30.08;99065.88;7392683;19;20029;-81
2024/02/13 02:28:48;;;;;;;0.20;0.20;;;;;;;23.86;32.23;99072.13;7390480;19;20350;-81
2024/02/13 02:31:15;;;;;;;0.52;0.52;;;;;;;23.73;32.45;99066.03;7394260;19;20010;-81
2024/02/13 02:33:43;;;;;;;0.10;0.10;;;;;;;23.71;32.40;99069.47;7389154;19;20112;-81
2024/02/13 02:36:10;;;;;;;2.92;0.30;;;;;;;23.56;32.44;99072.47;7392260;19;20134;-81
2024/02/13 02:38:38;;;;;;;0.10;0.10;;;;;;;22.67;33.09;99074.75;7390292;19;20042;-81
2024/02/13 02:41:06;;;;;;;0.65;0.65;;;;;;;22.43;33.16;99076.94;7388691;19;20353;-81
2024/02/13 02:43:37;;;;;;;0.43;0.13;;;;;;;22.34;33.11;99071.13;7389053;19;20363;-82
2024/02/13 02:46:04;;;;;;;1.70;0.80;;;;;;;22.29;33.58;99074.94;7394019;19;20015;-81
2024/02/13 02:48:30;;;;;;;0.15;0.15;;;;;;;23.89;31.97;99070.19;7392363;19;20090;-81
2024/02/13 02:50:58;;;;;;;1.48;0.65;;;;;;;24.45;30.76;99068.34;7390855;19;20373;-81
2024/02/13 02:53:24;;;;;;;0.35;0.10;;;;;;;22.49;33.01;99071.81;7386273;19;20014;-81
2024/02/13 02:55:53;;;;;;;0.20;0.20;;;;;;;22.17;33.04;99068.19;7390464;19;20021;-82
2024/02/13 02:58:19;;;;;;;0.10;0.10;;;;;;;24.02;30.99;99070.59;7389775;19;20461;-81
2024/02/13 03:00:45;;;;;;;0.17;0.17;;;;;;;24.71;30.31;99067.59;7393737;19;20015;-81
2024/02/13 03:03:11;;;;;;;0.15;0.15;;;;;;;24.61;30.58;99070.38;7392616;19;20014;-81
2024/02/13 03:05:37;;;;;;;0.20;0.20;;;;;;;24.46;30.61;99067.00;7389959;19;20023;-81
2024/02/13 03:08:04;;;;;;;0.17;0.17;;;;;;;25.16;29.78;99078.28;7390006;19;20014;-79
2024/02/13 03:10:30;;;;;;;0.40;0.15;;;;;;;24.74;30.29;99072.09;7388058;19;20022;-79
2024/02/13 03:12:58;;;;;;;5.05;1.20;;;;;;;25.00;29.97;99070.56;7385636;19;20022;-79
2024/02/13 03:15:27;;;;;;;0.10;0.10;;;;;;;25.07;30.07;99070.44;7388187;19;20030;-79
2024/02/13 03:17:53;;;;;;;0.30;0.30;;;;;;;24.42;30.64;99069.53;7389572;19;20638;-79
2024/02/13 03:20:19;;;;;;;0.45;0.45;;;;;;;23.71;31.23;99074.38;7387535;19;20015;-79
2024/02/13 03:22:45;;;;;;;0.45;0.45;;;;;;;23.41;31.36;99078.31;7388820;19;20361;-79
2024/02/13 03:25:11;;;;;;;0.22;0.22;;;;;;;22.50;32.59;99078.97;7389758;19;20019;-78
2024/02/13 03:27:37;;;;;;;0.73;0.60;;;;;;;21.19;33.82;99088.28;7392491;19;20015;-79
2024/02/13 03:30:04;;;;;;;0.50;0.50;;;;;;;21.43;33.86;99085.63;7390573;19;20029;-79
2024/02/13 03:32:30;;;;;;;0.30;0.30;;;;;;;22.66;32.62;99078.91;7387328;19;20010;-78
2024/02/13 03:34:56;;;;;;;0.10;0.10;;;;;;;23.30;32.28;99078.78;7389323;19;20450;-79
2024/02/13 03:37:22;;;;;;;0.10;0.05;;;;;;;23.88;31.89;99086.50;7393374;19;20021;-79
2024/02/13 03:39:49;;;;;;;0.10;0.10;;;;;;;23.84;31.75;99079.75;7389403;19;20007;-79
2024/02/13 03:42:15;;;;;;;0.10;0.10;;;;;;;24.47;30.89;99082.75;7387103;19;20020;-79
2024/02/13 03:44:41;;;;;;;0.10;0.10;;;;;;;26.15;29.44;99089.38;7388517;19;20022;-79
2024/02/13 03:47:08;;;;;;;0.10;0.10;;;;;;;26.42;29.56;99089.19;7393571;19;20468;-79
2024/02/13 03:49:34;;;;;;;1.20;0.40;;;;;;;26.93;29.09;99091.44;7386614;19;20018;-79
2024/02/13 03:52:00;;;;;;;0.20;0.20;;;;;;;27.10;28.89;99089.69;7389481;19;20025;-79
2024/02/13 03:54:26;;;;;;;0.20;0.20;;;;;;;27.35;28.12;99095.75;7389832;19;20011;-79
2024/02/13 03:56:52;;;;;;;10.15;0.73;;;;;;;26.19;28.98;99094.59;7395543;19;20101;-79
2024/02/13 03:59:18;;;;;;;1.00;0.20;;;;;;;24.44;30.62;99098.91;7396209;19;20011;-79
2024/02/13 04:01:44;;;;;;;0.10;0.10;;;;;;;26.26;28.96;99093.69;7400753;19;20041;-79
2024/02/13 04:04:11;;;;;;;0.10;0.10;;;;;;;28.20;27.58;99091.50;7397175;19;20020;-79
2024/02/13 04:06:37;;;;;;;0.20;0.20;;;;;;;28.76;27.20;99087.94;7397070;19;20014;-79
2024/02/13 04:09:03;;;;;;;0.10;0.10;;;;;;;29.47;26.32;99088.09;7395541;19;20025;-79
2024/02/13 04:11:30;;;;;;;0.32;0.30;;;;;;;29.02;26.64;99092.47;7396821;19;20530;-79
2024/02/13 04:13:57;;;;;;;0.10;0.10;;;;;;;28.85;26.88;99089.94;7392401;19;20113;-79
2024/02/13 04:16:24;;;;;;;0.10;0.10;;;;;;;29.13;26.64;99097.41;7394315;19;20089;-79
2024/02/13 04:18:50;;;;;;;0.25;0.25;;;;;;;29.59;26.09;99090.91;7396528;19;20018;-79
2024/02/13 04:21:17;;;;;;;1.50;0.35;;;;;;;31.07;24.98;99098.72;7393839;19;20492;-79
2024/02/13 04:23:44;;;;;;;0.20;0.20;;;;;;;30.90;24.91;99084.88;7394181;19;20031;-79
2024/02/13 04:26:10;;;;;;;0.20;0.20;;;;;;;30.75;24.57;99090.44;7395470;19;20025;-79
2024/02/13 04:28:39;;;;;;;1.75;0.52;;;;;;;30.64;24.89;99089.16;7396214;19;20041;-79
2024/02/13 04:31:05;;;;;;;0.30;0.30;;;;;;;31.63;24.14;99091.59;7398502;19;20018;-79
2024/02/13 04:33:32;;;;;;;0.15;0.15;;;;;;;31.88;23.64;99079.94;7392274;19;20022;-79
2024/02/13 04:35:58;;;;;;;0.10;0.10;;;;;;;32.01;23.45;99082.78;7393726;19;20338;-79
2024/02/13 04:38:24;;;;;;;0.30;0.30;;;;;;;31.51;23.86;99083.09;7393979;19;20014;-79
2024/02/13 04:40:50;;;;;;;0.15;0.15;;;;;;;31.25;23.80;99091.06;7393277;19;20070;-79
2024/02/13 04:43:16;;;;;;;0.10;0.10;;;;;;;31.12;24.11;99073.81;7390641;19;20464;-78
2024/02/13 04:45:42;;;;;;;9.65;0.52;;;;;;;30.81;24.57;99085.03;7394135;19;20014;-79
2024/02/13 04:48:12;;;;;;;0.10;0.10;;;;;;;30.82;24.03;99078.63;7395777;19;20494;-79
2024/02/13 04:50:38;;;;;;;0.10;0.10;;;;;;;31.48;24.13;99077.88;7393648;19;20038;-80
2024/02/13 04:53:04;;;;;;;0.10;0.10;;;;;;;30.47;24.66;99078.88;7391132;19;20010;-80
2024/02/13 04:55:32;;;;;;;0.10;0.10;;;;;;;29.99;24.72;99082.56;7392337;19;20014;-78
2024/02/13 04:57:58;;;;;;;0.10;0.10;;;;;;;29.89;24.98;99084.09;7394211;19;20018;-78
2024/02/13 05:00:24;;;;;;;1.27;0.50;;;;;;;29.81;25.26;99095.88;7396361;19;20045;-79
2024/02/13 05:03:02;;;;;;;0.20;0.13;;;;;;;28.73;26.82;99089.94;7396242;19;20041;-79
2024/02/13 05:08:15;;;;;;;0.20;0.20;;;;;;;26.90;28.55;99097.59;7392893;19;20362;-79
2024/02/13 05:10:42;;;;;;;0.20;0.20;;;;;;;26.83;28.61;99099.28;7394693;19;20049;-79
2024/02/13 05:13:08;;;;;;;0.10;0.10;;;;;;;25.99;29.59;99104.53;7392912;19;20364;-79
2024/02/13 05:15:36;;;;;;;0.10;0.10;;;;;;;24.87;31.32;99099.44;7392442;19;20018;-79
2024/02/13 05:18:06;;;;;;;0.10;0.10;;;;;;;24.91;30.99;99109.06;7393681;19;20021;-79
2024/02/13 05:20:33;;;;;;;0.20;0.20;;;;;;;27.53;29.15;99112.06;7392045;19;20011;-79
2024/02/13 05:22:59;;;;;;;0.20;0.20;;;;;;;29.00;28.03;99100.94;7391917;19;20373;-79
2024/02/13 05:25:26;;;;;;;0.10;0.10;;;;;;;29.92;27.16;99106.59;7392618;19;20467;-79
2024/02/13 05:27:52;;;;;;;0.10;0.10;;;;;;;29.83;27.22;99101.75;7398071;19;20480;-79
2024/02/13 05:30:20;;;;;;;0.30;0.17;;;;;;;29.79;27.22;99109.38;7393830;19;20027;-79
2024/02/13 05:32:46;;;;;;;1.05;0.10;;;;;;;29.81;27.35;99107.38;7392630;19;20018;-79
2024/02/13 05:35:12;;;;;;;0.10;0.10;;;;;;;30.32;26.86;99101.72;7391991;19;20014;-79
2024/02/13 05:37:39;;;;;;;1.15;0.52;;;;;;;30.21;27.00;99096.72;7396540;19;20022;-79
2024/02/13 05:40:07;;;;;;;0.20;0.20;;;;;;;29.19;28.05;99106.44;7390147;19;20513;-79
2024/02/13 05:42:34;;;;;;;0.22;0.22;;;;;;;28.61;28.55;99091.28;7391038;19;20026;-79
2024/02/13 05:45:00;;;;;;;3.67;0.65;;;;;;;28.07;28.90;99097.09;7392015;19;20035;-78
2024/02/13 05:47:33;;;;;;;0.38;0.20;;;;;;;26.58;29.70;99101.00;7396593;19;20022;-79
2024/02/13 05:50:00;;;;;;;0.10;0.10;;;;;;;25.67;31.00;99107.78;7392050;19;20019;-79
2024/02/13 05:52:26;;;;;;;3.10;1.55;;;;;;;25.94;30.89;99108.44;7393392;19;20021;-78
2024/02/13 05:54:52;;;;;;;0.10;0.10;;;;;;;26.13;30.76;99108.44;7393187;19;20018;-78
2024/02/13 05:57:19;;;;;;;0.10;0.10;;;;;;;26.17;30.89;99097.31;7395519;19;20356;-78
2024/02/13 05:59:47;;;;;;;0.20;0.20;;;;;;;27.94;29.18;99098.34;7395146;19;20022;-78
2024/02/13 06:02:13;;;;;;;0.32;0.32;;;;;;;28.02;29.45;99093.19;7396553;19;20034;-79
2024/02/13 06:04:39;;;;;;;2.58;0.30;;;;;;;27.02;29.98;99110.66;7394302;19;20448;-79
2024/02/13 06:07:05;;;;;;;0.10;0.10;;;;;;;26.51;30.67;99113.34;7394910;19;20307;-79
2024/02/13 06:09:32;;;;;;;0.20;0.20;;;;;;;27.42;29.92;99104.13;7391797;19;20019;-78
2024/02/13 06:11:58;;;;;;;0.10;0.00;;;;;;;27.77;29.60;99113.69;7392540;19;20011;-78
2024/02/13 06:14:24;;;;;;;0.10;0.10;;;;;;;28.12;29.31;99113.16;7392722;19;20026;-79
2024/02/13 06:16:50;;;;;;;9.02;0.52;;;;;;;27.90;29.46;99098.06;7391619;19;20018;-79
2024/02/13 06:19:16;;;;;;;2.47;0.50;;;;;;;28.20;29.17;99114.41;7391866;19;20495;-79
2024/02/13 06:21:43;;;;;;;0.10;0.10;;;;;;;28.38;28.66;99107.03;7392666;19;20468;-79
2024/02/13 06:24:09;;;;;;;0.55;0.50;;;;;;;28.10;29.28;99105.19;7390568;19;20025;-79
2024/02/13 06:26:37;;;;;;;0.10;0.10;;;;;;;28.98;28.36;99092.94;7393983;19;20007;-78
2024/02/13 06:29:05;;;;;;;0.32;0.20;;;;;;;29.03;28.52;99099.66;7393072;19;20018;-79
2024/02/13 06:31:34;;;;;;;1.60;0.85;;;;;;;29.17;28.24;99092.72;7396399;19;20520;-79
2024/02/13 06:34:01;;;;;;;0.10;0.10;;;;;;;28.26;29.22;99097.63;7388103;19;20019;-79
2024/02/13 06:36:27;;;;;;;0.10;0.10;;;;;;;28.27;28.96;99090.53;7390085;19;20024;-79
2024/02/13 06:38:53;;;;;;;1.00;0.28;;;;;;;28.31;29.20;99098.63;7394729;19;20014;-78
2024/02/13 06:41:19;;;;;;;1.80;0.68;;;;;;;29.54;27.73;99095.66;7391154;19;20019;-78
2024/02/13 06:43:46;;;;;;;0.20;0.20;;;;;;;29.76;27.73;99097.00;7389855;19;20037;-79
2024/02/13 06:46:12;;;;;;;0.10;0.10;;;;;;;29.95;27.73;99093.09;7390691;19;20007;-79
2024/02/13 06:48:41;;;;;;;0.45;0.45;;;;;;;30.40;27.20;99096.41;7391566;19;20019;-78
2024/02/13 06:51:12;;;;;;;0.57;0.50;;;;;;;31.59;26.53;99100.03;7392031;19;20041;-79
2024/02/13 06:53:39;;;;;;;;;;;;;;;29.08;28.08;99101.44;7391339;19;20026;-79
2024/02/13 06:56:05;;;;;;;0.38;0.38;;;;;;;27.36;29.78;99114.41;7389908;19;19930;-79
2024/02/13 06:58:32;;;;;;;0.75;0.20;;;;;;;27.49;29.63;99122.47;7393478;19;20048;-78
2024/02/13 07:00:58;;;;;;;1.20;0.60;;;;;;;28.30;28.94;99123.69;7394894;19;20024;-79
2024/02/13 07:03:24;;;;;;;0.20;0.10;;;;;;;27.28;29.82;99125.28;7390097;19;20023;-79
2024/02/13 07:05:50;;;;;;;0.10;0.10;;;;;;;27.09;29.90;99131.84;7390283;19;20037;-78
2024/02/13 07:08:16;;;;;;;0.10;0.10;;;;;;;27.00;30.47;99146.91;7389935;19;20045;-79
2024/02/13 07:10:46;;;;;;;0.47;0.47;;;;;;;27.09;30.07;99142.53;7386861;19;20014;-78
2024/02/13 07:13:12;;;;;;;0.95;0.32;;;;;;;27.04;30.20;99142.25;7389376;19;20102;-79
2024/02/13 07:15:39;;;;;;;1.55;0.40;;;;;;;26.48;31.09;99152.44;7390218;19;20026;-79
2024/02/13 07:18:06;;;;;;;0.32;0.32;;;;;;;28.11;29.22;99143.16;7391225;19;20010;-79
2024/02/13 07:20:32;;;;;;;0.10;0.10;;;;;;;28.89;28.66;99148.25;7390420;19;20015;-78
2024/02/13 07:22:59;;;;;;;0.25;0.25;;;;;;;28.79;28.91;99141.16;7390362;19;20015;-79
2024/02/13 07:25:25;;;;;;;0.90;0.32;;;;;;;29.10;28.70;99145.31;7387272;19;20050;-79
2024/02/13 07:27:51;;;;;;;0.73;0.20;;;;;;;29.77;27.90;99153.06;7388052;19;20014;-79
2024/02/13 07:30:17;;;;;;;0.43;0.20;;;;;;;30.56;27.15;99154.78;7391029;19;20074;-79
2024/02/13 07:32:45;;;;;;;2.60;0.20;;;;;;;31.47;26.84;99145.47;7389460;19;20519;-79
2024/02/13 07:35:12;;;;;;;0.10;0.10;;;;;;;31.28;26.82;99153.09;7389680;19;20081;-79
2024/02/13 07:37:38;;;;;;;0.90;0.35;;;;;;;30.67;26.97;99153.97;7390774;19;20029;-79
2024/02/13 07:40:04;;;;;;;0.40;0.40;;;;;;;30.35;26.87;99163.66;7392053;19;20033;-79
2024/02/13 07:42:30;;;;;;;0.10;0.10;;;;;;;30.21;27.33;99154.94;7388125;19;20014;-79
2024/02/13 07:45:00;;;;;;;1.08;0.50;;;;;;;30.30;27.26;99153.28;7390951;19;20014;-79
2024/02/13 07:47:26;;;;;;;0.20;0.17;;;;;;;30.26;27.30;99150.16;7389462;19;20019;-79
2024/02/13 07:49:58;;;;;;;0.55;0.20;;;;;;;30.62;26.76;99147.25;7393042;19;20352;-78
2024/02/13 07:52:24;;;;;;;0.20;0.20;;;;;;;31.04;26.47;99157.53;7388675;19;20337;-79
2024/02/13 07:54:53;;;;;;;0.10;0.10;;;;;;;30.57;26.76;99159.19;7390516;19;20348;-79
2024/02/13 07:57:19;;;;;;;0.20;0.20;;;;;;;30.95;26.51;99155.59;7387779;19;20420;-79
2024/02/13 07:59:46;;;;;;;3.92;0.47;;;;;;;31.88;26.04;99166.34;7392080;19;20030;-79
2024/02/13 08:02:13;;;;;;;0.20;0.20;;;;;;;32.19;25.86;99169.41;7389012;19;20015;-79
2024/02/13 08:04:40;;;;;;;0.10;0.10;;;;;;;32.21;25.73;99169.50;7385063;19;20019;-79
2024/02/13 08:07:09;;;;;;;0.10;0.10;;;;;;;32.50;25.27;99165.91;7384652;19;20086;-79
2024/02/13 08:09:35;;;;;;;0.20;0.20;;;;;;;33.03;25.30;99157.69;7385884;19;20006;-79
2024/02/13 08:12:04;;;;;;;0.10;0.10;;;;;;;33.22;24.88;99163.66;7385382;19;20509;-79
2024/02/13 08:14:32;;;;;;;0.30;0.30;;;;;;;32.58;25.35;99178.59;7386263;19;20029;-79
2024/02/13 08:16:59;;;;;;;0.73;0.73;;;;;;;32.02;25.61;99170.72;7385394;19;20023;-79
2024/02/13 08:19:26;;;;;;;0.15;0.15;;;;;;;31.76;26.14;99171.47;7387205;19;20021;-79
2024/02/13 08:21:52;;;;;;;0.17;0.17;;;;;;;31.88;25.90;99172.13;7384854;19;20030;-79
2024/02/13 08:24:19;;;;;;;1.17;0.50;;;;;;;32.12;25.73;99167.59;7383647;19;20523;-79
2024/02/13 08:26:45;;;;;;;1.40;0.65;;;;;;;33.14;25.06;99168.28;7381964;19;20014;-79
2024/02/13 08:29:11;;;;;;;0.25;0.17;;;;;;;32.71;25.31;99169.13;7382388;19;20015;-79
2024/02/13 08:31:37;;;;;;;0.10;0.10;;;;;;;32.44;25.70;99175.00;7388530;19;20109;-79
2024/02/13 08:34:05;;;;;;;0.25;0.25;;;;;;;32.12;25.74;99179.13;7382367;19;20434;-79
2024/02/13 08:36:31;;;;;;;0.10;0.10;;;;;;;31.80;25.97;99183.19;7387663;19;20007;-79
2024/02/13 08:38:57;;;;;;;0.35;0.22;;;;;;;31.60;26.05;99179.28;7385749;19;20010;-79
2024/02/13 08:41:23;;;;;;;1.58;0.40;;;;;;;31.55;26.01;99183.31;7392803;19;20523;-79
2024/02/13 08:43:51;;;;;;;1.48;0.20;;;;;;;31.50;26.09;99184.47;7391511;19;20017;-79
2024/02/13 08:46:19;;;;;;;11.60;0.63;;;;;;;31.61;26.25;99183.63;7396318;19;20357;-79
2024/02/13 08:48:45;;;;;;;0.30;0.17;;;;;;;31.87;26.14;99193.66;7396320;19;20572;-79
2024/02/13 08:51:13;;;;;;;0.38;0.30;;;;;;;31.84;26.29;99189.91;7397925;19;20025;-79
2024/02/13 08:53:39;;;;;;;0.30;0.30;;;;;;;32.32;25.87;99188.78;7392431;19;20011;-79
2024/02/13 08:56:05;;;;;;;0.20;0.20;;;;;;;33.39;25.19;99182.44;7390867;19;20006;-79
2024/02/13 08:58:32;;;;;;;0.60;0.20;;;;;;;33.82;24.58;99185.88;7394641;19;20038;-79
2024/02/13 09:00:58;;;;;;;1.00;0.73;;;;;;;34.88;23.86;99183.88;7397486;19;20116;-79
2024/02/13 09:03:24;;;;;;;1.00;0.30;;;;;;;31.76;25.89;99200.28;7393620;19;20352;-79
2024/02/13 09:05:51;;;;;;;7.93;0.45;;;;;;;30.69;26.94;99191.47;7393948;19;20400;-79
2024/02/13 09:08:18;;;;;;;1.35;0.40;;;;;;;30.48;26.77;99194.56;7393334;19;20403;-81
2024/02/13 09:10:44;;;;;;;1.17;0.50;;;;;;;30.46;26.96;99188.72;7396483;19;20019;-81
2024/02/13 09:13:11;;;;;;;9.55;0.95;;;;;;;30.46;26.98;99182.97;7391065;19;20010;-79
2024/02/13 09:15:37;;;;;;;8.32;1.15;;;;;;;30.56;27.40;99183.53;7393455;19;20023;-79
2024/02/13 09:18:03;;;;;;;3.70;1.23;;;;;;;30.61;26.90;99197.53;7393011;19;20031;-79
2024/02/13 09:20:30;;;;;;;6.18;0.73;;;;;;;30.40;27.58;99183.38;7394807;19;20014;-79
2024/02/13 09:22:56;;;;;;;8.15;1.58;;;;;;;30.33;27.46;99183.66;7392801;19;20022;-79
2024/02/13 09:25:23;;;;;;;1.95;1.48;;;;;;;30.13;27.66;99188.94;7391603;19;20046;-79
2024/02/13 09:27:50;;;;;;;6.85;1.17;;;;;;;30.23;27.29;99185.91;7392520;19;20010;-79
2024/02/13 09:30:17;;;;;;;4.68;0.60;;;;;;;28.65;28.81;99188.97;7393472;19;20050;-79
2024/02/13 09:32:44;;;;;;;5.20;1.70;;;;;;;30.54;27.73;99183.41;7391778;19;20014;-79
2024/02/13 09:35:10;;;;;;;5.75;1.08;;;;;;;31.09;27.04;99185.16;7391005;19;20018;-79
2024/02/13 09:37:39;;;;;;;2.78;1.10;;;;;;;31.23;27.12;99188.06;7391267;19;20014;-79
2024/02/13 09:40:16;;;;;;;0.10;0.10;;;;;;;31.40;26.93;99179.66;7391668;19;20391;-79
2024/02/13 09:42:44;;;;;;;0.88;0.35;;;;;;;31.33;27.01;99177.09;7391768;19;20488;-79
2024/02/13 09:45:12;;;;;;;0.30;0.30;;;;;;;31.40;26.99;99182.53;7392377;19;20484;-79
2024/02/13 09:47:40;;;;;;;0.20;0.20;;;;;;;31.36;26.88;99187.34;7393157;19;20017;-78
2024/02/13 09:50:12;;;;;;;1.00;0.80;;;;;;;28.67;28.88;99183.38;7391840;19;20018;-79
2024/02/13 09:55:40;;;;;;;0.25;0.25;;;;;;;28.76;28.97;99186.13;7390068;19;20007;-52
2024/02/13 09:58:07;;;;;;;0.68;0.40;;;;;;;28.61;28.84;99183.72;7388727;19;20015;-52
2024/02/13 10:00:33;;;;;;;5.93;0.57;;;;;;;29.87;28.36;99178.75;7391082;19;20010;-52
2024/02/13 10:03:02;;;;;;;0.10;0.00;;;;;;;31.18;26.85;99192.09;7393080;19;20361;-52
2024/02/13 10:05:28;;;;;;;1.17;0.75;;;;;;;31.15;27.08;99178.97;7390264;19;20017;-52
2024/02/13 10:07:54;;;;;;;0.35;0.35;;;;;;;29.36;28.40;99180.66;7390024;19;20023;-52
2024/02/13 10:10:20;;;;;;;1.95;0.50;;;;;;;28.19;29.15;99175.94;7389197;19;20018;-52
2024/02/13 10:12:59;;;;;;;0.43;0.43;;;;;;;28.42;29.57;99170.31;7389300;19;20007;-52
2024/02/13 10:15:39;;;;;;;8.40;0.75;;;;;;;29.59;28.29;99169.16;7388000;19;20038;-52
2024/02/13 10:18:15;;;;;;;0.10;0.10;;;;;;;29.61;28.56;99174.25;7392009;19;20426;-52
2024/02/13 10:20:43;;;;;;;3.40;0.82;;;;;;;30.75;27.25;99168.84;7394293;19;20006;-52
2024/02/13 10:23:13;;;;;;;2.95;1.40;;;;;;;30.17;27.94;99165.44;7393796;19;20034;-52
2024/02/13 10:25:43;;;;;;;0.38;0.25;;;;;;;30.29;28.11;99164.03;7394368;19;20011;-52
2024/02/13 10:28:12;;;;;;;0.20;0.20;;;;;;;31.26;27.07;99163.75;7394909;19;20066;-52
2024/02/13 10:30:39;;;;;;;0.10;0.10;;;;;;;30.92;27.57;99168.38;7396878;19;20030;-52
2024/02/13 10:33:06;;;;;;;0.30;0.22;;;;;;;31.10;27.15;99163.59;7394815;19;20044;-52
2024/02/13 10:35:33;;;;;;;0.75;0.60;;;;;;;32.41;26.31;99170.50;7393731;19;20018;-52
2024/02/13 10:38:00;;;;;;;1.13;0.93;;;;;;;33.67;25.02;99160.66;7394491;19;20468;-52
2024/02/13 10:40:33;;;;;;;1.30;1.02;;;;;;;34.23;25.13;99156.59;7394650;19;20011;-52
2024/02/13 10:42:59;;;;;;;0.35;0.28;;;;;;;34.69;24.58;99157.78;7394866;19;20341;-52
2024/02/13 10:45:30;;;;;;;0.88;0.20;;;;;;;35.66;24.08;99159.38;7394608;19;20014;-52
2024/02/13 10:48:02;;;;;;;;;;;;;;;36.74;23.35;99155.81;7394455;19;20010;-53
2024/02/13 10:50:28;;;;;;;1.00;0.30;;;;;;;37.38;22.86;99163.69;7392957;19;19921;-52
2024/02/13 10:52:55;;;;;;;2.38;0.73;;;;;;;37.48;22.70;99157.41;7393229;19;20014;-52
2024/02/13 10:55:21;;;;;;;2.20;0.40;;;;;;;37.81;22.35;99156.91;7393891;19;20011;-53
2024/02/13 10:57:50;;;;;;;8.88;1.65;;;;;;;37.99;21.86;99150.84;7393850;19;20025;-53
2024/02/13 11:00:20;;;;;;;0.50;0.35;;;;;;;38.03;22.30;99145.88;7395998;19;20015;-52
2024/02/13 11:02:48;;;;;;;0.45;0.45;;;;;;;38.19;21.91;99149.19;7397753;19;20363;-52
2024/02/13 11:05:15;;;;;;;3.15;1.13;;;;;;;38.61;21.21;99140.81;7393703;19;20384;-52
2024/02/13 11:07:41;;;;;;;9.00;2.80;;;;;;;38.35;21.82;99132.19;7393917;19;20027;-52
2024/02/13 11:10:08;;;;;;;6.57;1.67;;;;;;;38.44;21.36;99133.84;7392560;19;20021;-52
2024/02/13 11:12:35;;;;;;;24.33;3.22;;;;;;;38.50;21.63;99121.63;7396945;19;20014;-52
2024/02/13 11:15:15;;;;;;;18.25;3.30;;;;;;;38.65;21.59;99126.34;7392507;19;20039;-52
2024/02/13 11:17:45;;;;;;;4.22;2.13;;;;;;;38.82;21.32;99131.13;7393186;19;20066;-52
2024/02/13 11:20:14;;;;;;;26.17;3.95;;;;;;;38.84;21.08;99119.53;7393817;19;20438;-52
2024/02/13 11:22:49;;;;;;;5.75;1.55;;;;;;;39.09;21.11;99112.81;7396697;19;20364;-52
2024/02/13 11:25:15;;;;;;;10.20;2.35;;;;;;;39.15;20.92;99120.97;7393005;19;20343;-52
2024/02/13 11:27:43;;;;;;;9.13;2.42;;;;;;;39.31;21.31;99124.22;7392187;19;20024;-52
2024/02/13 11:30:20;;;;;;;24.15;2.83;;;;;;;39.61;21.09;99113.19;7392301;19;20010;-52
2024/02/13 11:32:46;;;;;;;4.25;1.70;;;;;;;39.81;21.24;99125.22;7396805;19;20539;-52
2024/02/13 11:35:17;;;;;;;10.65;1.90;;;;;;;39.84;20.58;99117.25;7392885;19;20014;-52
2024/02/13 11:37:43;;;;;;;2.70;2.43;;;;;;;40.15;20.74;99113.47;7393369;19;20074;-53
2024/02/13 11:40:15;;;;;;;8.20;2.97;;;;;;;40.15;20.64;99115.63;7392640;19;20382;-53